Latest Weather Observations for Swanbourne

IDW60901

Issued at 2:51 pm WST Wednesday 28 September 2016 (issued every 10 minutes, with the page automatically refreshed every 10 minutes)

About weather observations | Map of Perth area stations | Latest observations for Perth area | Other Formats
Station Details ID: 009215 Name: SWANBOURNE Lat: -31.96 Lon: 115.76 Height: 40.96 m
Data from the previous 72 hours. | See also: Recent months at Swanbourne
Date/Time
WST
Temp
°C
App
Temp
°C
Dew
Point
°C
Rel
Hum
%
Delta-T
°C
Wind Press
QNH
hPa
Press
MSL
hPa
Rain since
9am
mm
Dir  Spd
km/h
Gust
km/h
Spd
kts
Gust
kts
28/02:30pm 13.4 8.2 3.8 52 4.3 SW 20 30 11 16 - - -
28/02:00pm 14.5 9.6 3.9 49 4.9 SSW 19 28 10 15 - - -
28/01:30pm 13.6 8.3 3.1 49 4.7 SSW 20 30 11 16 - - -
28/01:00pm 13.9 8.7 3.4 49 4.7 SSW 20 28 11 15 - - -
28/12:30pm 13.6 8.4 3.7 51 4.5 SSW 20 28 11 15 - - -
28/12:00pm 13.4 8.1 2.9 49 4.7 SSW 20 30 11 16 - - -
28/11:30am 12.8 7.0 2.4 49 4.5 SSW 22 32 12 17 - - -
28/11:00am 12.8 8.2 1.5 46 4.8 SSW 15 28 8 15 - - -
28/09:30am 12.3 7.5 2.7 52 4.2 SSE 17 32 9 17 - - 0.0
28/09:00am 12.1 7.2 2.3 51 4.2 SSE 17 24 9 13 - - 8.0
28/08:30am 10.9 6.0 2.2 55 3.7 SSE 17 30 9 16 - - 8.0
28/08:00am 10.3 6.3 2.7 59 3.3 SE 13 20 7 11 - - 8.0
28/07:30am 9.4 4.5 2.3 61 3.0 SSE 17 28 9 15 - - 8.0
28/07:00am 8.7 4.6 2.5 65 2.6 SE 13 20 7 11 - - 8.0
28/06:30am 8.2 4.6 2.7 68 2.3 SE 11 15 6 8 - - 8.0
28/06:00am 8.1 4.1 2.8 69 2.2 SE 13 22 7 12 - - 8.0
28/05:30am 8.1 4.1 3.0 70 2.2 SE 13 19 7 10 - - 8.0
28/05:00am 7.9 4.0 3.4 73 1.9 SE 13 19 7 10 - - 8.0
28/04:30am 8.3 4.4 3.6 72 2.0 SE 13 19 7 10 - - 8.0
28/04:00am 8.1 4.2 3.6 73 1.9 SE 13 20 7 11 - - 8.0
28/03:30am 8.7 5.4 4.5 75 1.9 SE 11 19 6 10 - - 8.0
28/03:00am 8.8 4.3 4.4 74 1.9 SSE 17 33 9 18 - - 8.0
28/02:30am 9.1 5.8 4.3 72 2.1 SSE 11 22 6 12 - - 7.8
28/02:00am 9.3 5.6 4.3 71 2.2 SSE 13 26 7 14 - - 7.8
28/01:30am 9.4 5.2 4.0 69 2.4 SSE 15 26 8 14 - - 7.8
28/01:00am 10.6 4.9 4.9 68 2.6 S 24 35 13 19 - - 7.8
28/12:38am 11.0 3.8 5.1 67 2.7 SSW 32 50 17 27 - - 7.6
28/12:30am 11.5 4.4 3.3 57 3.6 SSW 30 44 16 24 - - 7.6
28/12:00am 11.9 4.4 3.7 57 3.7 SSW 32 54 17 29 - - 7.6
 
Date/Time
WST
Temp
°C
App
Temp
°C
Dew
Point
°C
Rel
Hum
%
Delta-T
°C
Wind Press
QNH
hPa
Press
MSL
hPa
Rain since
9am
mm
Dir  Spd
km/h
Gust
km/h
Spd
kts
Gust
kts
27/11:30pm 12.0 4.2 2.7 53 4.1 SSW 33 56 18 30 - - 7.6
27/11:02pm 12.1 4.8 4.6 60 3.4 SSW 32 54 17 29 - - 7.6
27/11:00pm 12.0 4.8 5.0 62 3.2 SSW 32 46 17 25 - - 7.6
27/10:30pm 11.9 4.5 4.9 62 3.2 SW 33 54 18 29 - - 7.6
27/10:00pm 11.1 4.0 6.6 74 2.1 SW 33 63 18 34 - - 7.6
27/09:34pm 12.4 3.8 4.6 59 3.6 SW 39 59 21 32 - - 7.6
27/09:30pm 12.2 3.3 5.1 62 3.3 SW 41 54 22 29 - - 7.6
27/09:03pm 11.6 5.2 6.9 73 2.2 SW 30 52 16 28 - - 7.6
27/09:00pm 11.4 5.0 6.9 74 2.1 SW 30 46 16 25 - - 7.6
27/08:35pm 13.3 5.3 5.7 60 3.6 SW 37 65 20 35 - - 7.2
27/08:30pm 13.1 5.5 5.8 61 3.4 SW 35 50 19 27 - - 7.2
27/08:00pm 12.4 4.5 6.0 65 3.0 SW 37 59 20 32 - - 7.2
27/07:30pm 13.1 4.5 4.8 57 3.8 SW 39 57 21 31 - - 7.2
27/07:04pm 12.8 5.9 6.6 66 3.0 SW 32 54 17 29 - - 7.2
27/07:00pm 12.5 5.9 5.9 64 3.1 SW 30 46 16 25 - - 7.2
27/06:40pm 12.3 3.3 6.4 67 2.8 SW 43 70 23 38 - - 7.2
27/06:38pm 12.8 3.8 6.4 65 3.1 SW 43 70 23 38 - - 7.2
27/06:36pm 13.4 5.9 6.5 63 3.3 SW 35 61 19 33 - - 7.2
27/06:30pm 13.2 6.1 6.3 63 3.3 SW 33 50 18 27 - - 7.2
27/06:00pm 12.7 4.1 6.3 65 3.0 SW 41 65 22 35 - - 7.2
27/05:45pm 13.6 5.9 7.2 65 3.1 SW 37 56 20 30 - - 7.2
27/05:30pm 13.3 4.8 6.9 65 3.1 SW 41 57 22 31 - - 7.2
27/05:01pm 14.0 6.0 7.3 64 3.3 SW 39 59 21 32 - - 7.2
27/05:00pm 14.1 6.1 7.4 64 3.3 SW 39 57 21 31 - - 7.2
27/04:30pm 14.3 6.4 7.8 65 3.2 SW 39 56 21 30 - - 7.2
27/04:00pm 15.1 7.7 9.7 70 2.8 SW 39 61 21 33 - - 7.2
27/03:30pm 14.4 6.5 9.4 72 2.6 SW 41 65 22 35 - - 7.2
27/03:18pm 13.9 6.9 10.1 78 2.0 SW 37 56 20 30 - - 7.2
27/03:00pm 14.3 7.1 9.3 72 2.6 WSW 37 52 20 28 - - 7.2
27/02:31pm 13.7 6.5 9.2 74 2.3 WSW 37 59 20 32 - - 7.2
27/02:30pm 13.8 6.7 9.5 75 2.2 WSW 37 54 20 29 - - 7.2
27/02:02pm 12.5 6.5 10.7 89 0.9 SW 33 52 18 28 - - 6.8
27/02:00pm 12.6 6.7 11.0 90 0.8 SW 33 50 18 27 - - 6.6
27/01:33pm 11.8 2.5 10.7 93 0.6 SW 50 69 27 37 - - 6.0
27/01:30pm 12.0 3.2 10.9 93 0.6 WSW 48 69 26 37 - - 6.0
27/01:27pm 12.8 4.5 11.5 92 0.7 W 46 69 25 37 - - 5.6
27/01:15pm 14.1 8.0 13.1 94 0.6 W 37 56 20 30 - - 4.8
27/01:00pm 13.4 6.2 11.8 90 0.9 W 41 57 22 31 - - 4.2
27/12:40pm 17.1 10.5 11.4 69 3.1 WNW 37 61 20 33 - - 0.0
27/12:30pm 17.7 12.0 11.9 69 3.2 WNW 33 44 18 24 - - 0.0
27/12:00pm 18.1 10.9 10.5 61 4.1 WNW 39 57 21 31 - - 0.0
27/11:54am 17.9 12.0 11.0 64 3.7 WNW 33 54 18 29 - - 0.0
27/11:30am 18.4 12.1 11.2 63 3.9 WNW 35 48 19 26 - - 0.0
27/11:00am 18.3 13.1 12.7 70 3.1 WNW 32 43 17 23 - - 0.0
27/10:30am 18.6 12.2 12.1 66 3.6 WNW 37 52 20 28 - - 0.0
27/10:00am 17.7 12.5 11.7 68 3.3 WNW 30 43 16 23 - - 0.0
27/09:30am 17.6 13.2 11.6 68 3.3 WNW 26 35 14 19 - - 0.0
27/09:00am 17.3 12.8 11.3 68 3.3 WNW 26 37 14 20 - - 2.8
27/08:30am 16.5 11.2 9.9 65 3.5 WNW 28 39 15 21 - - 2.8
27/08:00am 16.2 10.1 10.3 68 3.1 WNW 33 44 18 24 - - 2.8
27/07:30am 16.1 10.4 11.1 72 2.7 WNW 32 43 17 23 - - 2.8
27/07:00am 15.4 10.6 11.8 79 2.0 WNW 28 37 15 20 - - 2.8
27/06:30am 15.0 10.3 12.1 83 1.6 WNW 28 37 15 20 - - 2.8
27/06:00am 14.3 10.1 12.5 89 1.0 NW 26 37 14 20 - - 2.8
27/05:30am 15.2 11.0 12.5 84 1.5 WNW 26 35 14 19 - - 2.8
27/05:00am 14.6 10.9 12.8 89 1.0 WNW 24 33 13 18 - - 2.8
27/04:30am 14.3 12.7 14.0 98 0.2 WNW 15 22 8 12 - - 2.8
27/04:00am 13.8 11.1 13.5 98 0.2 WNW 20 28 11 15 - - 2.8
27/03:30am 13.8 10.7 13.3 97 0.3 W 22 33 12 18 - - 2.8
27/03:00am 13.7 11.3 12.8 94 0.5 W 17 24 9 13 - - 2.8
27/02:30am 14.7 11.5 11.8 83 1.6 WNW 20 28 11 15 - - 1.2
27/02:00am 14.6 10.5 11.4 81 1.7 WNW 24 33 13 18 - - 1.2
27/01:30am 14.9 10.1 12.9 88 1.1 W 30 41 16 22 - - 1.2
27/01:00am 15.0 12.0 12.1 83 1.6 WNW 19 26 10 14 - - 1.2
27/12:30am 14.7 11.4 12.9 89 1.0 NW 22 30 12 16 - - 1.2
27/12:00am 14.6 11.5 13.3 92 0.7 WNW 22 30 12 16 - - 1.2
 
Date/Time
WST
Temp
°C
App
Temp
°C
Dew
Point
°C
Rel
Hum
%
Delta-T
°C
Wind Press
QNH
hPa
Press
MSL
hPa
Rain since
9am
mm
Dir  Spd
km/h
Gust
km/h
Spd
kts
Gust
kts
26/11:30pm 13.9 12.4 13.0 94 0.5 WNW 13 22 7 12 - - 1.0
26/11:00pm 14.0 11.5 12.2 89 1.0 W 17 28 9 15 - - 0.2
26/10:30pm 15.2 12.8 12.5 84 1.5 W 17 28 9 15 - - 0.0
26/10:00pm 15.0 12.9 12.3 84 1.5 WSW 15 22 8 12 - - 0.0
26/09:30pm 15.7 12.5 11.1 74 2.5 W 19 26 10 14 - - 0.0
26/09:00pm 15.2 12.5 11.6 79 1.9 W 17 26 9 14 - - 0.0
26/08:30pm 15.1 11.7 11.3 78 2.0 W 20 28 11 15 - - 0.0
26/08:00pm 15.2 12.7 12.2 82 1.6 WNW 17 22 9 12 - - 0.0
26/07:30pm 15.0 11.8 11.4 79 1.9 W 19 26 10 14 - - 0.0
26/07:00pm 15.1 11.8 10.9 76 2.2 WNW 19 28 10 15 - - 0.0
26/06:30pm 15.3 12.0 11.5 78 2.0 W 20 28 11 15 - - 0.0
26/06:00pm 15.1 11.7 11.3 78 2.0 W 20 33 11 18 - - 0.0
26/05:30pm 15.6 12.6 10.8 73 2.6 W 17 26 9 14 - - 0.0
26/05:00pm 15.9 12.6 10.9 72 2.7 WNW 19 26 10 14 - - 0.0
26/04:30pm 16.0 12.6 10.5 70 2.9 W 19 26 10 14 - - 0.0
26/04:00pm 16.5 13.0 10.8 69 3.0 WNW 20 28 11 15 - - 0.0
26/03:30pm 16.3 13.0 11.0 71 2.8 WNW 19 28 10 15 - - 0.0
26/03:00pm 16.7 12.7 10.3 66 3.4 WNW 22 32 12 17 - - 0.0
26/02:30pm 16.7 12.8 9.6 63 3.7 WNW 20 30 11 16 - - 0.0
26/02:00pm 16.8 12.7 10.0 64 3.6 W 22 33 12 18 - - 0.0
26/01:30pm 16.7 13.1 9.9 64 3.6 WNW 19 32 10 17 - - 0.0
26/01:00pm 16.7 13.0 9.4 62 3.8 WNW 19 28 10 15 - - 0.0
26/12:30pm 16.0 12.2 9.0 63 3.6 W 19 28 10 15 - - 0.0
26/12:00pm 16.1 12.1 9.1 63 3.6 WNW 20 28 11 15 - - 0.0
26/11:30am 16.4 12.5 8.6 60 4.0 WNW 19 30 10 16 - - 0.0
26/11:00am 16.3 12.2 8.0 58 4.2 WNW 19 26 10 14 - - 0.0
26/10:30am 17.3 14.0 7.9 54 4.8 WNW 15 20 8 11 - - 0.0
26/10:00am 17.1 12.8 7.2 52 5.0 W 19 26 10 14 - - 0.0
26/09:30am 15.8 11.6 8.1 60 3.9 W 20 26 11 14 - - 0.0
26/09:00am 15.6 12.2 7.6 59 4.0 WNW 15 22 8 12 - - 0.0
26/08:30am 15.9 12.1 7.7 58 4.1 W 17 26 9 14 - - 0.0
26/08:00am 14.9 11.2 7.9 63 3.5 W 17 22 9 12 - - 0.0
26/07:30am 11.9 10.4 8.6 80 1.6 NW 6 13 3 7 - - 0.0
26/07:00am 8.9 6.9 6.2 83 1.2 NE 6 9 3 5 - - 0.0
26/06:30am 8.3 6.0 5.6 83 1.2 NE 7 9 4 5 - - 0.0
26/06:00am 8.3 5.9 5.1 80 1.4 NE 7 9 4 5 - - 0.0
26/05:30am 8.8 6.4 5.4 79 1.5 NE 7 9 4 5 - - 0.0
26/05:00am 8.7 6.4 5.6 81 1.4 NE 7 9 4 5 - - 0.0
26/04:30am 8.3 5.9 5.2 81 1.4 NE 7 7 4 4 - - 0.0
26/04:00am 8.6 6.2 5.4 80 1.4 ENE 7 7 4 4 - - 0.0
26/03:30am 9.0 6.7 5.7 80 1.5 NE 7 9 4 5 - - 0.0
26/03:00am 8.8 6.1 5.5 80 1.5 ENE 9 9 5 5 - - 0.0
26/02:30am 8.6 6.2 5.2 79 1.5 E 7 9 4 5 - - 0.0
26/02:00am 9.0 6.3 5.7 80 1.5 E 9 9 5 5 - - 0.0
26/01:30am 8.7 6.0 5.6 81 1.4 E 9 9 5 5 - - 0.0
26/01:00am 8.9 5.8 5.6 80 1.5 E 11 11 6 6 - - 0.0
26/12:30am 9.0 6.3 5.7 80 1.5 E 9 11 5 6 - - 0.0
26/12:00am 9.3 6.6 5.7 78 1.6 E 9 11 5 6 - - 0.0
 
Date/Time
WST
Temp
°C
App
Temp
°C
Dew
Point
°C
Rel
Hum
%
Delta-T
°C
Wind Press
QNH
hPa
Press
MSL
hPa
Rain since
9am
mm
Dir  Spd
km/h
Gust
km/h
Spd
kts
Gust
kts
25/11:30pm 9.9 7.2 5.7 75 1.9 SE 9 11 5 6 - - 0.0
25/11:00pm 10.1 7.4 5.5 73 2.1 SE 9 11 5 6 - - 0.0
25/10:30pm 10.4 7.7 5.6 72 2.2 SE 9 13 5 7 - - 0.0
25/10:00pm 10.8 8.1 5.6 70 2.4 SE 9 11 5 6 - - 0.0
25/09:30pm 11.1 8.4 5.4 68 2.6 SSE 9 11 5 6 - - 0.0
25/09:00pm 11.3 8.0 4.5 63 3.1 SSE 11 17 6 9 - - 0.0
25/08:30pm 11.5 8.2 4.3 61 3.2 SSE 11 15 6 8 - - 0.0
25/08:00pm 12.3 8.2 4.3 58 3.6 S 15 22 8 12 - - 0.0
25/07:30pm 12.1 7.9 3.9 57 3.7 S 15 26 8 14 - - 0.0
25/07:00pm 12.2 7.5 3.4 55 3.9 S 17 26 9 14 - - 0.0
25/06:30pm 12.3 7.6 3.3 54 4.0 S 17 24 9 13 - - 0.0
25/06:00pm 12.8 7.8 3.5 53 4.2 SSW 19 28 10 15 - - 0.0
25/05:30pm 13.5 8.3 3.8 52 4.4 SSW 20 32 11 17 - - 0.0
25/05:00pm 13.9 8.2 4.8 54 4.2 SSW 24 39 13 21 - - 0.0
25/04:30pm 14.2 8.9 5.0 54 4.3 SSW 22 35 12 19 - - 0.0
25/04:00pm 14.4 8.4 5.2 54 4.3 SSW 26 37 14 20 - - 0.0
25/03:30pm 14.6 9.3 5.1 53 4.5 SSW 22 32 12 17 - - 0.0
25/03:00pm 15.1 9.9 5.6 53 4.5 SSW 22 33 12 18 - - 0.0

Latest Capital City Observations: Canberra | Sydney | Melbourne | Brisbane | Adelaide | Perth | Hobart | Darwin

Other Formats:

Comma delimited format used in spreadsheet applications
http://www.bom.gov.au/fwo/IDW60901/IDW60901.94614.axf

JavaScript Object Notation format (JSON) in row-major order
http://www.bom.gov.au/fwo/IDW60901/IDW60901.94614.json